sensor_id;sensor_type;location;lat;lon;timestamp;pressure;altitude;pressure_sealevel;temperature;humidity
22047;BME280;11187;49.412;20.956;2023-03-05T00:02:36;94456.53;;;0.36;89.30
22047;BME280;11187;49.412;20.956;2023-03-05T00:05:10;94448.97;;;0.36;89.74
22047;BME280;11187;49.412;20.956;2023-03-05T00:08:03;94452.28;;;0.32;90.00
22047;BME280;11187;49.412;20.956;2023-03-05T00:11:00;94465.69;;;0.31;89.93
22047;BME280;11187;49.412;20.956;2023-03-05T00:13:34;94469.03;;;0.32;90.40
22047;BME280;11187;49.412;20.956;2023-03-05T00:16:21;94469.03;;;0.30;90.34
22047;BME280;11187;49.412;20.956;2023-03-05T00:18:57;94455.56;;;0.25;90.57
22047;BME280;11187;49.412;20.956;2023-03-05T00:21:50;94463.06;;;0.22;91.26
22047;BME280;11187;49.412;20.956;2023-03-05T00:24:44;94455.50;;;0.19;91.41
22047;BME280;11187;49.412;20.956;2023-03-05T00:27:38;94461.31;;;0.15;91.59
22047;BME280;11187;49.412;20.956;2023-03-05T00:30:12;94464.66;;;0.12;92.13
22047;BME280;11187;49.412;20.956;2023-03-05T00:33:00;94466.31;;;0.10;91.98
22047;BME280;11187;49.412;20.956;2023-03-05T00:35:42;94462.09;;;0.11;92.31
22047;BME280;11187;49.412;20.956;2023-03-05T00:38:29;94462.94;;;0.10;92.87
22047;BME280;11187;49.412;20.956;2023-03-05T00:41:03;94452.84;;;0.07;93.49
22047;BME280;11187;49.412;20.956;2023-03-05T00:43:49;94446.13;;;0.06;93.22
22047;BME280;11187;49.412;20.956;2023-03-05T00:46:23;94446.13;;;0.06;93.22
22047;BME280;11187;49.412;20.956;2023-03-05T00:49:09;94449.50;;;0.08;93.67
22047;BME280;11187;49.412;20.956;2023-03-05T00:51:43;94450.34;;;0.08;93.96
22047;BME280;11187;49.412;20.956;2023-03-05T00:54:29;94446.13;;;0.06;94.46
22047;BME280;11187;49.412;20.956;2023-03-05T00:57:03;94446.94;;;0.03;94.33
22047;BME280;11187;49.412;20.956;2023-03-05T00:59:49;94439.38;;;0.00;94.19
22047;BME280;11187;49.412;20.956;2023-03-05T01:02:23;94443.53;;;-0.02;94.13
22047;BME280;11187;49.412;20.956;2023-03-05T01:05:17;94444.34;;;-0.03;93.93
22047;BME280;11187;49.412;20.956;2023-03-05T01:08:10;94436.81;;;-0.02;94.25
22047;BME280;11187;49.412;20.956;2023-03-05T01:11:06;94436.78;;;-0.05;94.15
22047;BME280;11187;49.412;20.956;2023-03-05T01:14:00;94444.31;;;-0.06;94.18
22047;BME280;11187;49.412;20.956;2023-03-05T01:16:33;94445.13;;;-0.09;94.14
22047;BME280;11187;49.412;20.956;2023-03-05T01:19:19;94448.41;;;-0.14;93.63
22047;BME280;11187;49.412;20.956;2023-03-05T01:21:53;94442.47;;;-0.21;93.40
22047;BME280;11187;49.412;20.956;2023-03-05T01:24:39;94444.13;;;-0.22;93.58
22047;BME280;11187;49.412;20.956;2023-03-05T01:27:13;94456.75;;;-0.20;93.37
22047;BME280;11187;49.412;20.956;2023-03-05T01:29:59;94450.81;;;-0.24;93.49
22047;BME280;11187;49.412;20.956;2023-03-05T01:32:34;94457.50;;;-0.26;93.41
22047;BME280;11187;49.412;20.956;2023-03-05T01:35:23;94449.13;;;-0.25;93.81
22047;BME280;11187;49.412;20.956;2023-03-05T01:37:57;94451.66;;;-0.23;94.21
22047;BME280;11187;49.412;20.956;2023-03-05T01:40:51;94457.59;;;-0.19;94.51
22047;BME280;11187;49.412;20.956;2023-03-05T01:43:46;94446.66;;;-0.22;94.35
22047;BME280;11187;49.412;20.956;2023-03-05T01:49:18;94439.03;;;-0.29;93.68
22047;BME280;11187;49.412;20.956;2023-03-05T01:54:48;94439.81;;;-0.33;94.06
22047;BME280;11187;49.412;20.956;2023-03-05T01:57:27;94441.47;;;-0.34;94.29
22047;BME280;11187;49.412;20.956;2023-03-05T02:00:26;94447.34;;;-0.33;94.27
22047;BME280;11187;49.412;20.956;2023-03-05T02:03:23;94444.00;;;-0.34;93.97
22047;BME280;11187;49.412;20.956;2023-03-05T02:05:57;94435.59;;;-0.36;94.24
22047;BME280;11187;49.412;20.956;2023-03-05T02:08:43;94428.84;;;-0.38;94.25
22047;BME280;11187;49.412;20.956;2023-03-05T02:11:17;94438.84;;;-0.42;94.34
22047;BME280;11187;49.412;20.956;2023-03-05T02:14:04;94434.66;;;-0.41;94.33
22047;BME280;11187;49.412;20.956;2023-03-05T02:16:39;94428.84;;;-0.38;94.44
22047;BME280;11187;49.412;20.956;2023-03-05T02:19:27;94435.56;;;-0.37;94.83
22047;BME280;11187;49.412;20.956;2023-03-05T02:22:00;94437.25;;;-0.35;94.78
22047;BME280;11187;49.412;20.956;2023-03-05T02:24:53;94440.63;;;-0.36;94.77
22047;BME280;11187;49.412;20.956;2023-03-05T02:27:31;94435.59;;;-0.34;95.33
22047;BME280;11187;49.412;20.956;2023-03-05T02:30:26;94431.34;;;-0.40;95.37
22047;BME280;11187;49.412;20.956;2023-03-05T02:33:21;94432.19;;;-0.39;96.14
22047;BME280;11187;49.412;20.956;2023-03-05T02:35:54;94426.34;;;-0.37;95.84
22047;BME280;11187;49.412;20.956;2023-03-05T02:38:41;94428.00;;;-0.37;95.81
22047;BME280;11187;49.412;20.956;2023-03-05T02:41:15;94428.84;;;-0.37;95.66
22047;BME280;11187;49.412;20.956;2023-03-05T02:44:01;94415.47;;;-0.36;96.01
22047;BME280;11187;49.412;20.956;2023-03-05T02:46:35;94422.16;;;-0.36;96.10
22047;BME280;11187;49.412;20.956;2023-03-05T02:49:21;94423.00;;;-0.37;96.35
22047;BME280;11187;49.412;20.956;2023-03-05T02:51:55;94418.78;;;-0.37;96.61
22047;BME280;11187;49.412;20.956;2023-03-05T02:54:49;94422.97;;;-0.39;96.08
22047;BME280;11187;49.412;20.956;2023-03-05T02:57:43;94423.78;;;-0.43;95.52
22047;BME280;11187;49.412;20.956;2023-03-05T03:00:36;94427.03;;;-0.49;95.29
22047;BME280;11187;49.412;20.956;2023-03-05T03:03:10;94419.50;;;-0.49;95.33
22047;BME280;11187;49.412;20.956;2023-03-05T03:06:04;94423.69;;;-0.49;95.76
22047;BME280;11187;49.412;20.956;2023-03-05T03:08:37;94424.53;;;-0.49;95.91
22047;BME280;11187;49.412;20.956;2023-03-05T03:11:30;94425.38;;;-0.50;96.52
22047;BME280;11187;49.412;20.956;2023-03-05T03:14:25;94424.50;;;-0.52;96.33
22047;BME280;11187;49.412;20.956;2023-03-05T03:16:58;94421.16;;;-0.49;96.51
22047;BME280;11187;49.412;20.956;2023-03-05T03:19:45;94417.81;;;-0.50;96.67
22047;BME280;11187;49.412;20.956;2023-03-05T03:22:18;94419.47;;;-0.50;97.09
22047;BME280;11187;49.412;20.956;2023-03-05T03:25:05;94419.47;;;-0.50;97.29
22047;BME280;11187;49.412;20.956;2023-03-05T03:27:38;94411.13;;;-0.49;97.32
22047;BME280;11187;49.412;20.956;2023-03-05T03:30:18;94410.28;;;-0.48;97.21
22047;BME280;11187;49.412;20.956;2023-03-05T03:32:57;94404.38;;;-0.50;97.51
22047;BME280;11187;49.412;20.956;2023-03-05T03:35:31;94407.75;;;-0.50;97.46
22047;BME280;11187;49.412;20.956;2023-03-05T03:38:17;94405.22;;;-0.51;97.80
22047;BME280;11187;49.412;20.956;2023-03-05T03:40:51;94411.06;;;-0.54;97.77
22047;BME280;11187;49.412;20.956;2023-03-05T03:43:37;94406.91;;;-0.52;97.75
22047;BME280;11187;49.412;20.956;2023-03-05T03:46:11;94406.88;;;-0.53;96.83
22047;BME280;11187;49.412;20.956;2023-03-05T03:48:57;94401.78;;;-0.58;95.77
22047;BME280;11187;49.412;20.956;2023-03-05T03:51:31;94396.72;;;-0.61;96.03
22047;BME280;11187;49.412;20.956;2023-03-05T03:54:24;94403.38;;;-0.65;95.05
22047;BME280;11187;49.412;20.956;2023-03-05T03:57:18;94395.00;;;-0.65;94.83
22047;BME280;11187;49.412;20.956;2023-03-05T03:59:52;94398.38;;;-0.63;95.38
22047;BME280;11187;49.412;20.956;2023-03-05T04:02:38;94402.56;;;-0.64;95.71
22047;BME280;11187;49.412;20.956;2023-03-05T04:05:12;94398.41;;;-0.60;95.80
22047;BME280;11187;49.412;20.956;2023-03-05T04:07:58;94400.09;;;-0.59;95.77
22047;BME280;11187;49.412;20.956;2023-03-05T04:10:33;94400.97;;;-0.55;96.27
22047;BME280;11187;49.412;20.956;2023-03-05T04:13:27;94392.63;;;-0.53;96.19
22047;BME280;11187;49.412;20.956;2023-03-05T04:16:21;94395.13;;;-0.54;96.47
22047;BME280;11187;49.412;20.956;2023-03-05T04:19:15;94383.38;;;-0.55;96.70
22047;BME280;11187;49.412;20.956;2023-03-05T04:22:16;94394.22;;;-0.59;97.03
22047;BME280;11187;49.412;20.956;2023-03-05T04:25:10;94393.34;;;-0.61;97.51
22047;BME280;11187;49.412;20.956;2023-03-05T04:27:43;94384.97;;;-0.64;97.71
22047;BME280;11187;49.412;20.956;2023-03-05T04:30:37;94382.41;;;-0.67;98.06
22047;BME280;11187;49.412;20.956;2023-03-05T04:33:31;94382.38;;;-0.68;97.80
22047;BME280;11187;49.412;20.956;2023-03-05T04:36:04;94384.03;;;-0.70;98.27
22047;BME280;11187;49.412;20.956;2023-03-05T04:38:51;94387.34;;;-0.73;98.52
22047;BME280;11187;49.412;20.956;2023-03-05T04:41:25;94383.97;;;-0.75;98.58
22047;BME280;11187;49.412;20.956;2023-03-05T04:44:19;94374.72;;;-0.79;98.88
22047;BME280;11187;49.412;20.956;2023-03-05T04:47:13;94369.66;;;-0.80;98.92
22047;BME280;11187;49.412;20.956;2023-03-05T04:49:46;94368.00;;;-0.78;99.37
22047;BME280;11187;49.412;20.956;2023-03-05T04:52:41;94364.66;;;-0.77;98.63
22047;BME280;11187;49.412;20.956;2023-03-05T04:55:36;94364.66;;;-0.79;98.67
22047;BME280;11187;49.412;20.956;2023-03-05T04:58:09;94358.78;;;-0.79;98.54
22047;BME280;11187;49.412;20.956;2023-03-05T05:01:03;94360.47;;;-0.78;98.79
22047;BME280;11187;49.412;20.956;2023-03-05T05:03:37;94368.00;;;-0.78;98.76
22047;BME280;11187;49.412;20.956;2023-03-05T05:06:24;94369.69;;;-0.77;98.81
22047;BME280;11187;49.412;20.956;2023-03-05T05:08:57;94363.00;;;-0.75;99.02
22047;BME280;11187;49.412;20.956;2023-03-05T05:11:51;94369.75;;;-0.73;99.04
22047;BME280;11187;49.412;20.956;2023-03-05T05:14:45;94373.13;;;-0.72;99.24
22047;BME280;11187;49.412;20.956;2023-03-05T05:17:39;94363.03;;;-0.74;99.51
22047;BME280;11187;49.412;20.956;2023-03-05T05:20:33;94361.38;;;-0.73;99.02
22047;BME280;11187;49.412;20.956;2023-03-05T05:23:27;94363.88;;;-0.75;98.86
22047;BME280;11187;49.412;20.956;2023-03-05T05:26:02;94363.00;;;-0.75;98.54
22047;BME280;11187;49.412;20.956;2023-03-05T05:28:49;94353.81;;;-0.73;99.11
22047;BME280;11187;49.412;20.956;2023-03-05T05:31:22;94349.63;;;-0.73;99.20
22047;BME280;11187;49.412;20.956;2023-03-05T05:34:09;94357.22;;;-0.70;99.14
22047;BME280;11187;49.412;20.956;2023-03-05T05:36:42;94366.47;;;-0.67;99.29
22047;BME280;11187;49.412;20.956;2023-03-05T05:39:36;94377.41;;;-0.65;99.55
22047;BME280;11187;49.412;20.956;2023-03-05T05:42:36;94373.25;;;-0.63;99.52
22047;BME280;11187;49.412;20.956;2023-03-05T05:45:10;94367.41;;;-0.60;99.60
22047;BME280;11187;49.412;20.956;2023-03-05T05:47:57;94372.44;;;-0.60;99.46
22047;BME280;11187;49.412;20.956;2023-03-05T05:50:30;94369.06;;;-0.59;99.77
22047;BME280;11187;49.412;20.956;2023-03-05T05:53:24;94364.88;;;-0.60;100.00
22047;BME280;11187;49.412;20.956;2023-03-05T05:56:19;94368.25;;;-0.57;99.89
22047;BME280;11187;49.412;20.956;2023-03-05T05:58:53;94357.41;;;-0.53;99.88
22047;BME280;11187;49.412;20.956;2023-03-05T06:01:40;94355.78;;;-0.51;100.00
22047;BME280;11187;49.412;20.956;2023-03-05T06:04:13;94360.00;;;-0.47;100.00
22047;BME280;11187;49.412;20.956;2023-03-05T06:07:00;94361.72;;;-0.44;100.00
22047;BME280;11187;49.412;20.956;2023-03-05T06:09:36;94357.47;;;-0.48;99.89
22047;BME280;11187;49.412;20.956;2023-03-05T06:12:23;94359.19;;;-0.44;100.00
22047;BME280;11187;49.412;20.956;2023-03-05T06:14:56;94369.28;;;-0.41;100.00
22047;BME280;11187;49.412;20.956;2023-03-05T06:17:43;94365.97;;;-0.40;100.00
22047;BME280;11187;49.412;20.956;2023-03-05T06:20:16;94361.81;;;-0.35;100.00
22047;BME280;11187;49.412;20.956;2023-03-05T06:23:03;94368.56;;;-0.31;100.00
22047;BME280;11187;49.412;20.956;2023-03-05T06:25:36;94359.34;;;-0.30;100.00
22047;BME280;11187;49.412;20.956;2023-03-05T06:28:30;94360.22;;;-0.28;100.00
22047;BME280;11187;49.412;20.956;2023-03-05T06:31:26;94372.00;;;-0.24;100.00
22047;BME280;11187;49.412;20.956;2023-03-05T06:34:20;94367.84;;;-0.21;100.00
22047;BME280;11187;49.412;20.956;2023-03-05T06:36:53;94364.53;;;-0.18;100.00
22047;BME280;11187;49.412;20.956;2023-03-05T06:39:40;94371.28;;;-0.12;100.00
22047;BME280;11187;49.412;20.956;2023-03-05T06:42:13;94368.00;;;-0.07;100.00
22047;BME280;11187;49.412;20.956;2023-03-05T06:45:00;94370.53;;;-0.04;100.00
22047;BME280;11187;49.412;20.956;2023-03-05T06:47:33;94368.91;;;0.00;100.00
22047;BME280;11187;49.412;20.956;2023-03-05T06:50:20;94359.69;;;0.02;99.99
22047;BME280;11187;49.412;20.956;2023-03-05T06:52:53;94363.06;;;0.03;100.00
22047;BME280;11187;49.412;20.956;2023-03-05T06:55:40;94365.59;;;0.06;100.00
22047;BME280;11187;49.412;20.956;2023-03-05T06:58:13;94359.75;;;0.10;100.00
22047;BME280;11187;49.412;20.956;2023-03-05T07:01:00;94358.97;;;0.14;100.00
22047;BME280;11187;49.412;20.956;2023-03-05T07:03:34;94363.19;;;0.16;99.89
22047;BME280;11187;49.412;20.956;2023-03-05T07:06:22;94360.66;;;0.16;99.80
22047;BME280;11187;49.412;20.956;2023-03-05T07:08:56;94359.00;;;0.17;99.95
22047;BME280;11187;49.412;20.956;2023-03-05T07:11:50;94354.78;;;0.17;100.00
22047;BME280;11187;49.412;20.956;2023-03-05T07:14:44;94351.44;;;0.17;99.83
22047;BME280;11187;49.412;20.956;2023-03-05T07:17:17;94347.28;;;0.20;99.78
22047;BME280;11187;49.412;20.956;2023-03-05T07:20:11;94346.47;;;0.26;99.87
22047;BME280;11187;49.412;20.956;2023-03-05T07:22:45;94346.53;;;0.34;99.94
22047;BME280;11187;49.412;20.956;2023-03-05T07:25:39;94352.47;;;0.42;99.75
22047;BME280;11187;49.412;20.956;2023-03-05T07:28:13;94351.63;;;0.43;99.94
22047;BME280;11187;49.412;20.956;2023-03-05T07:31:03;94345.81;;;0.47;99.82
22047;BME280;11187;49.412;20.956;2023-03-05T07:33:36;94356.78;;;0.54;99.62
22047;BME280;11187;49.412;20.956;2023-03-05T07:36:23;94347.53;;;0.54;99.49
22047;BME280;11187;49.412;20.956;2023-03-05T07:38:56;94357.63;;;0.53;99.68
22047;BME280;11187;49.412;20.956;2023-03-05T07:41:45;94349.22;;;0.54;99.91
22047;BME280;11187;49.412;20.956;2023-03-05T07:44:18;94346.75;;;0.57;99.92
22047;BME280;11187;49.412;20.956;2023-03-05T07:47:12;94348.47;;;0.64;99.63
22047;BME280;11187;49.412;20.956;2023-03-05T07:50:06;94349.28;;;0.61;99.63
22047;BME280;11187;49.412;20.956;2023-03-05T07:52:39;94344.25;;;0.61;99.80
22047;BME280;11187;49.412;20.956;2023-03-05T07:55:33;94343.41;;;0.62;100.00
22047;BME280;11187;49.412;20.956;2023-03-05T07:58:27;94345.91;;;0.61;100.00
22047;BME280;11187;49.412;20.956;2023-03-05T08:01:00;94344.22;;;0.60;100.00
22047;BME280;11187;49.412;20.956;2023-03-05T08:03:54;94337.50;;;0.59;100.00
22047;BME280;11187;49.412;20.956;2023-03-05T08:06:27;94335.81;;;0.61;100.00
22047;BME280;11187;49.412;20.956;2023-03-05T08:09:15;94334.16;;;0.57;100.00
22047;BME280;11187;49.412;20.956;2023-03-05T08:11:48;94335.81;;;0.61;100.00
22047;BME280;11187;49.412;20.956;2023-03-05T08:14:35;94332.53;;;0.67;100.00
22047;BME280;11187;49.412;20.956;2023-03-05T08:17:08;94327.50;;;0.68;100.00
22047;BME280;11187;49.412;20.956;2023-03-05T08:19:55;94335.88;;;0.64;100.00
22047;BME280;11187;49.412;20.956;2023-03-05T08:22:34;94324.97;;;0.70;100.00
22047;BME280;11187;49.412;20.956;2023-03-05T08:25:21;94332.59;;;0.76;100.00
22047;BME280;11187;49.412;20.956;2023-03-05T08:27:54;94331.75;;;0.81;100.00
22047;BME280;11187;49.412;20.956;2023-03-05T08:30:47;94325.91;;;0.84;100.00
22047;BME280;11187;49.412;20.956;2023-03-05T08:33:20;94332.63;;;0.85;100.00
22047;BME280;11187;49.412;20.956;2023-03-05T08:36:10;94331.81;;;0.88;100.00
22047;BME280;11187;49.412;20.956;2023-03-05T08:38:43;94330.16;;;0.91;100.00
22047;BME280;11187;49.412;20.956;2023-03-05T08:41:37;94331.00;;;0.89;100.00
22047;BME280;11187;49.412;20.956;2023-03-05T08:44:31;94333.50;;;0.89;100.00
22047;BME280;11187;49.412;20.956;2023-03-05T08:47:04;94325.13;;;0.91;100.00
22047;BME280;11187;49.412;20.956;2023-03-05T08:49:58;94324.31;;;0.97;100.00
22047;BME280;11187;49.412;20.956;2023-03-05T08:52:31;94327.69;;;1.00;100.00
22047;BME280;11187;49.412;20.956;2023-03-05T08:55:25;94326.88;;;1.03;100.00
22047;BME280;11187;49.412;20.956;2023-03-05T08:57:58;94320.13;;;1.02;100.00
22047;BME280;11187;49.412;20.956;2023-03-05T09:00:45;94323.50;;;1.02;100.00
22047;BME280;11187;49.412;20.956;2023-03-05T09:03:18;94325.16;;;1.02;100.00
22047;BME280;11187;49.412;20.956;2023-03-05T09:06:07;94316.72;;;0.92;100.00
22047;BME280;11187;49.412;20.956;2023-03-05T09:08:41;94317.50;;;0.82;100.00
22047;BME280;11187;49.412;20.956;2023-03-05T09:11:28;94320.00;;;0.79;100.00
22047;BME280;11187;49.412;20.956;2023-03-05T09:14:02;94313.31;;;0.82;100.00
22047;BME280;11187;49.412;20.956;2023-03-05T09:16:57;94329.25;;;0.83;100.00
22047;BME280;11187;49.412;20.956;2023-03-05T09:19:55;94325.06;;;0.82;100.00
22047;BME280;11187;49.412;20.956;2023-03-05T09:22:49;94333.44;;;0.81;100.00
22047;BME280;11187;49.412;20.956;2023-03-05T09:25:43;94339.28;;;0.71;100.00
22047;BME280;11187;49.412;20.956;2023-03-05T09:28:17;94342.53;;;0.57;99.67
22047;BME280;11187;49.412;20.956;2023-03-05T09:31:06;94329.84;;;0.45;100.00
22047;BME280;11187;49.412;20.956;2023-03-05T09:36:47;94336.44;;;0.29;97.32
22047;BME280;11187;49.412;20.956;2023-03-05T09:39:20;94333.06;;;0.29;97.71
22047;BME280;11187;49.412;20.956;2023-03-05T09:42:36;94333.94;;;0.34;98.01
22047;BME280;11187;49.412;20.956;2023-03-05T09:45:53;94331.47;;;0.40;97.87
22047;BME280;11187;49.412;20.956;2023-03-05T09:51:21;94329.84;;;0.45;96.99
22047;BME280;11187;49.412;20.956;2023-03-05T09:54:52;94324.00;;;0.49;96.70
22047;BME280;11187;49.412;20.956;2023-03-05T09:57:14;94319.81;;;0.54;96.78
22047;BME280;11187;49.412;20.956;2023-03-05T10:00:06;94318.22;;;0.59;95.92
22047;BME280;11187;49.412;20.956;2023-03-05T10:02:51;94321.53;;;0.58;96.02
22047;BME280;11187;49.412;20.956;2023-03-05T10:06:05;94308.13;;;0.59;95.20
22047;BME280;11187;49.412;20.956;2023-03-05T10:12:07;94305.66;;;0.67;96.07
22047;BME280;11187;49.412;20.956;2023-03-05T10:15:30;94296.44;;;0.66;95.59
22047;BME280;11187;49.412;20.956;2023-03-05T10:18:39;94300.66;;;0.75;95.57
22047;BME280;11187;49.412;20.956;2023-03-05T10:25:13;94294.81;;;0.79;95.28
22047;BME280;11187;49.412;20.956;2023-03-05T10:28:12;94288.09;;;0.84;95.06
22047;BME280;11187;49.412;20.956;2023-03-05T10:31:12;94286.50;;;1.00;95.44
22047;BME280;11187;49.412;20.956;2023-03-05T10:34:07;94282.34;;;1.11;94.22
22047;BME280;11187;49.412;20.956;2023-03-05T10:42:42;94277.44;;;1.43;94.50
22047;BME280;11187;49.412;20.956;2023-03-05T10:45:26;94264.84;;;1.56;94.67
22047;BME280;11187;49.412;20.956;2023-03-05T10:54:29;94264.91;;;1.73;94.01
22047;BME280;11187;49.412;20.956;2023-03-05T10:57:23;94258.19;;;1.81;94.05
22047;BME280;11187;49.412;20.956;2023-03-05T11:00:05;94251.44;;;1.87;93.93
22047;BME280;11187;49.412;20.956;2023-03-05T11:03:00;94238.81;;;1.95;93.92
22047;BME280;11187;49.412;20.956;2023-03-05T11:06:01;94243.88;;;2.01;93.90
22047;BME280;11187;49.412;20.956;2023-03-05T11:09:21;94240.53;;;2.01;93.74
22047;BME280;11187;49.412;20.956;2023-03-05T11:12:03;94233.81;;;2.04;94.00
22047;BME280;11187;49.412;20.956;2023-03-05T11:18:16;94223.69;;;2.18;93.70
22047;BME280;11187;49.412;20.956;2023-03-05T11:21:20;94211.91;;;2.22;92.84
22047;BME280;11187;49.412;20.956;2023-03-05T11:24:17;94206.84;;;2.28;93.77
22047;BME280;11187;49.412;20.956;2023-03-05T11:27:35;94202.59;;;2.36;93.89
22047;BME280;11187;49.412;20.956;2023-03-05T11:30:24;94195.84;;;2.43;93.50
22047;BME280;11187;49.412;20.956;2023-03-05T11:33:20;94194.16;;;2.49;93.74
22047;BME280;11187;49.412;20.956;2023-03-05T11:36:22;94190.78;;;2.55;93.15
22047;BME280;11187;49.412;20.956;2023-03-05T11:39:08;94189.13;;;2.53;92.58
22047;BME280;11187;49.412;20.956;2023-03-05T11:53:26;94173.19;;;2.23;92.35
22047;BME280;11187;49.412;20.956;2023-03-05T11:56:30;94171.50;;;2.17;92.80
22047;BME280;11187;49.412;20.956;2023-03-05T11:59:27;94164.78;;;2.07;93.24
22047;BME280;11187;49.412;20.956;2023-03-05T12:02:21;94165.63;;;1.95;93.16
22047;BME280;11187;49.412;20.956;2023-03-05T12:04:55;94168.16;;;1.91;93.53
22047;BME280;11187;49.412;20.956;2023-03-05T12:07:54;94158.09;;;1.84;93.65
22047;BME280;11187;49.412;20.956;2023-03-05T12:10:28;94163.97;;;1.80;93.69
22047;BME280;11187;49.412;20.956;2023-03-05T12:19:22;94151.34;;;1.66;94.42
22047;BME280;11187;49.412;20.956;2023-03-05T12:22:02;94148.00;;;1.69;94.73
22047;BME280;11187;49.412;20.956;2023-03-05T12:33:55;94131.16;;;1.62;95.19
22047;BME280;11187;49.412;20.956;2023-03-05T12:36:49;94137.88;;;1.67;95.19
22047;BME280;11187;49.412;20.956;2023-03-05T12:51:02;94111.81;;;1.92;94.19
22047;BME280;11187;49.412;20.956;2023-03-05T12:53:35;94112.63;;;1.95;94.07
22047;BME280;11187;49.412;20.956;2023-03-05T12:56:25;94098.31;;;1.93;93.63
22047;BME280;11187;49.412;20.956;2023-03-05T12:59:02;94105.91;;;1.93;93.27
22047;BME280;11187;49.412;20.956;2023-03-05T13:02:01;94106.75;;;1.92;92.84
22047;BME280;11187;49.412;20.956;2023-03-05T13:04:43;94108.44;;;2.00;92.90
22047;BME280;11187;49.412;20.956;2023-03-05T13:07:32;94104.19;;;2.08;92.87
22047;BME280;11187;49.412;20.956;2023-03-05T13:10:06;94108.41;;;2.14;92.84
22047;BME280;11187;49.412;20.956;2023-03-05T13:13:00;94108.38;;;2.19;92.86
22047;BME280;11187;49.412;20.956;2023-03-05T13:15:34;94098.25;;;2.22;92.68
22047;BME280;11187;49.412;20.956;2023-03-05T13:18:30;94102.47;;;2.21;92.35
22047;BME280;11187;49.412;20.956;2023-03-05T13:21:13;94105.84;;;2.19;92.42
22047;BME280;11187;49.412;20.956;2023-03-05T13:24:17;94096.59;;;2.16;92.59
22047;BME280;11187;49.412;20.956;2023-03-05T13:27:31;94094.91;;;2.15;92.89
22047;BME280;11187;49.412;20.956;2023-03-05T13:30:04;94091.53;;;2.13;93.15
22047;BME280;11187;49.412;20.956;2023-03-05T13:32:56;94090.72;;;2.13;92.83
22047;BME280;11187;49.412;20.956;2023-03-05T13:35:32;94101.66;;;2.10;92.39
22047;BME280;11187;49.412;20.956;2023-03-05T13:38:38;94097.47;;;2.09;91.46
22047;BME280;11187;49.412;20.956;2023-03-05T13:41:33;94089.88;;;2.06;90.57
22047;BME280;11187;49.412;20.956;2023-03-05T13:44:28;94094.09;;;2.07;91.12
22047;BME280;11187;49.412;20.956;2023-03-05T13:47:06;94097.47;;;2.09;91.51
22047;BME280;11187;49.412;20.956;2023-03-05T13:49:55;94094.09;;;2.07;89.95
22047;BME280;11187;49.412;20.956;2023-03-05T13:52:32;94090.72;;;2.11;90.01
22047;BME280;11187;49.412;20.956;2023-03-05T13:55:27;94094.09;;;2.05;86.01
22047;BME280;11187;49.412;20.956;2023-03-05T13:58:52;94089.06;;;2.01;86.60
22047;BME280;11187;49.412;20.956;2023-03-05T14:01:53;94094.13;;;2.01;87.14
22047;BME280;11187;49.412;20.956;2023-03-05T14:04:47;94099.16;;;1.99;86.31
22047;BME280;11187;49.412;20.956;2023-03-05T14:07:31;94089.06;;;1.96;86.19
22047;BME280;11187;49.412;20.956;2023-03-05T14:10:37;94087.38;;;1.97;85.42
22047;BME280;11187;49.412;20.956;2023-03-05T14:13:16;94083.19;;;2.00;87.11
22047;BME280;11187;49.412;20.956;2023-03-05T14:16:32;94084.00;;;1.99;85.45
22047;BME280;11187;49.412;20.956;2023-03-05T14:19:05;94073.06;;;1.97;84.99
22047;BME280;11187;49.412;20.956;2023-03-05T14:21:59;94084.88;;;1.98;85.19
22047;BME280;11187;49.412;20.956;2023-03-05T14:24:53;94073.94;;;1.96;84.75
22047;BME280;11187;49.412;20.956;2023-03-05T14:27:35;94072.25;;;1.97;84.39
22047;BME280;11187;49.412;20.956;2023-03-05T14:30:24;94076.44;;;1.99;85.44
22047;BME280;11187;49.412;20.956;2023-03-05T14:32:59;94078.13;;;1.99;85.45
22047;BME280;11187;49.412;20.956;2023-03-05T14:35:49;94078.97;;;1.99;84.66
22047;BME280;11187;49.412;20.956;2023-03-05T14:38:26;94077.31;;;1.94;82.09
22047;BME280;11187;49.412;20.956;2023-03-05T14:41:51;94077.31;;;1.94;82.54
22047;BME280;11187;49.412;20.956;2023-03-05T14:44:17;94086.56;;;1.98;83.89
22047;BME280;11187;49.412;20.956;2023-03-05T14:47:05;94083.19;;;1.99;83.95
22047;BME280;11187;49.412;20.956;2023-03-05T14:49:59;94089.91;;;1.92;83.12
22047;BME280;11187;49.412;20.956;2023-03-05T14:52:33;94089.09;;;1.82;81.70
22047;BME280;11187;49.412;20.956;2023-03-05T14:55:29;94082.38;;;1.78;83.10
22047;BME280;11187;49.412;20.956;2023-03-05T14:58:26;94085.75;;;1.74;83.37
22047;BME280;11187;49.412;20.956;2023-03-05T15:01:02;94090.78;;;1.70;83.36
22047;BME280;11187;49.412;20.956;2023-03-05T15:03:49;94093.31;;;1.66;82.78
22047;BME280;11187;49.412;20.956;2023-03-05T15:06:30;94094.16;;;1.64;83.34
22047;BME280;11187;49.412;20.956;2023-03-05T15:09:18;94100.88;;;1.60;82.68
22047;BME280;11187;49.412;20.956;2023-03-05T15:11:51;94105.09;;;1.58;83.44
22047;BME280;11187;49.412;20.956;2023-03-05T15:14:45;94104.25;;;1.53;82.73
22047;BME280;11187;49.412;20.956;2023-03-05T15:17:41;94110.13;;;1.49;83.60
22047;BME280;11187;49.412;20.956;2023-03-05T15:20:19;94116.03;;;1.42;85.27
22047;BME280;11187;49.412;20.956;2023-03-05T15:23:06;94132.81;;;1.18;87.37
22047;BME280;11187;49.412;20.956;2023-03-05T15:25:40;94120.19;;;1.04;88.33
22047;BME280;11187;49.412;20.956;2023-03-05T15:28:36;94125.19;;;0.95;90.11
22047;BME280;11187;49.412;20.956;2023-03-05T15:31:30;94128.53;;;0.88;90.54
22047;BME280;11187;49.412;20.956;2023-03-05T15:34:27;94123.50;;;0.77;91.46
22047;BME280;11187;49.412;20.956;2023-03-05T15:37:21;94131.00;;;0.70;91.52
22047;BME280;11187;49.412;20.956;2023-03-05T15:39:55;94136.88;;;0.62;92.60
22047;BME280;11187;49.412;20.956;2023-03-05T15:42:49;94135.09;;;0.45;93.24
22047;BME280;11187;49.412;20.956;2023-03-05T15:45:43;94119.13;;;0.33;93.29
22047;BME280;11187;49.412;20.956;2023-03-05T15:48:37;94128.31;;;0.28;93.54